createdAt,value
2023-04-02T00:01:01.480Z,98870.56
2023-04-02T00:03:42.557Z,98866.09
2023-04-02T00:06:33.149Z,98870.53
2023-04-02T00:09:04.802Z,98874.94
2023-04-02T00:11:37.541Z,98868.59
2023-04-02T00:14:13.693Z,98879.72
2023-04-02T00:16:40.981Z,98879.13
2023-04-02T00:19:18.479Z,98882.38
2023-04-02T00:21:47.540Z,98883.78
2023-04-02T00:24:17.712Z,98890.09
2023-04-02T00:26:50.547Z,98886.97
2023-04-02T00:29:19.283Z,98885.13
2023-04-02T00:31:49.294Z,98889.81
2023-04-02T00:34:22.105Z,98887.06
2023-04-02T00:36:51.218Z,98886.97
2023-04-02T00:39:24.976Z,98890.00
2023-04-02T00:41:58.856Z,98894.78
2023-04-02T00:44:30.525Z,98886.25
2023-04-02T00:46:57.989Z,98892.03
2023-04-02T00:49:39.453Z,98895.78
2023-04-02T00:52:18.849Z,98893.31
2023-04-02T00:54:51.141Z,98901.66
2023-04-02T00:57:25.752Z,98897.16
2023-04-02T01:00:05.232Z,98900.09
2023-04-02T01:02:34.375Z,98892.47
2023-04-02T01:05:23.657Z,98898.34
2023-04-02T01:08:14.920Z,98893.94
2023-04-02T01:11:23.790Z,98902.69
2023-04-02T01:13:53.532Z,98901.22
2023-04-02T01:16:33.291Z,98903.88
2023-04-02T01:19:28.691Z,98902.88
2023-04-02T01:22:35.260Z,98895.31
2023-04-02T01:25:04.715Z,98900.09
2023-04-02T01:27:49.608Z,98903.34
2023-04-02T01:30:18.436Z,98901.13
2023-04-02T01:32:45.808Z,98901.56
2023-04-02T01:35:13.020Z,98906.91
2023-04-02T01:37:50.180Z,98895.84
2023-04-02T01:40:44.037Z,98894.94
2023-04-02T01:43:33.107Z,98897.91
2023-04-02T01:46:06.811Z,98897.16
2023-04-02T01:48:33.881Z,98889.78
2023-04-02T01:51:05.558Z,98886.00
2023-04-02T01:53:33.402Z,98893.47
2023-04-02T01:56:04.927Z,98893.47
2023-04-02T01:58:33.897Z,98901.47
2023-04-02T02:01:08.493Z,98898.34
2023-04-02T02:03:38.793Z,98901.25
2023-04-02T02:06:06.847Z,98901.09
2023-04-02T02:08:58.374Z,98899.09
2023-04-02T02:11:28.567Z,98899.16
2023-04-02T02:14:00.987Z,98891.72
2023-04-02T02:16:31.964Z,98896.59
2023-04-02T02:19:04.559Z,98893.56
2023-04-02T02:21:42.431Z,98901.84
2023-04-02T02:24:31.972Z,98899.19
2023-04-02T02:27:37.956Z,98907.00
2023-04-02T02:30:25.408Z,98905.81
2023-04-02T02:33:21.845Z,98912.13
2023-04-02T02:35:56.154Z,98913.97
2023-04-02T02:38:34.677Z,98913.91
2023-04-02T02:41:17.059Z,98918.56
2023-04-02T02:43:57.617Z,98916.75
2023-04-02T02:46:27.723Z,98913.00
2023-04-02T02:48:57.900Z,98924.19
2023-04-02T02:51:50.795Z,98918.41
2023-04-02T02:54:27.212Z,98909.59
2023-04-02T02:57:00.177Z,98917.56
2023-04-02T02:59:30.905Z,98912.34
2023-04-02T03:02:00.523Z,98910.78
2023-04-02T03:04:30.768Z,98921.09
2023-04-02T03:06:59.228Z,98915.38
2023-04-02T03:09:39.532Z,98930.53
2023-04-02T03:12:22.449Z,98926.88
2023-04-02T03:15:01.249Z,98935.13
2023-04-02T03:17:37.226Z,98932.53
2023-04-02T03:20:17.918Z,98943.50
2023-04-02T03:22:55.356Z,98940.38
2023-04-02T03:25:23.765Z,98936.84
2023-04-02T03:27:56.848Z,98940.09
2023-04-02T03:30:44.274Z,98946.16
2023-04-02T03:33:24.166Z,98947.53
2023-04-02T03:35:55.200Z,98939.72
2023-04-02T03:38:35.115Z,98931.00
2023-04-02T03:41:18.081Z,98940.00
2023-04-02T03:43:54.903Z,98937.34
2023-04-02T03:46:33.839Z,98939.19
2023-04-02T03:49:07.728Z,98940.47
2023-04-02T03:51:57.712Z,98941.94
2023-04-02T03:54:25.089Z,98939.81
2023-04-02T03:56:53.458Z,98945.41
2023-04-02T03:59:42.916Z,98945.69
2023-04-02T04:02:26.825Z,98943.56
2023-04-02T04:04:56.324Z,98935.13
2023-04-02T04:07:34.502Z,98936.94
2023-04-02T04:10:03.301Z,98931.63
2023-04-02T04:12:37.130Z,98938.16
2023-04-02T04:15:15.471Z,98945.53
2023-04-02T04:18:10.634Z,98941.75
2023-04-02T04:20:57.122Z,98950.28
2023-04-02T04:23:36.872Z,98950.84
2023-04-02T04:26:12.777Z,98949.47
2023-04-02T04:28:48.512Z,98958.56
2023-04-02T04:31:27.304Z,98959.47
2023-04-02T04:34:04.022Z,98958.63
2023-04-02T04:36:41.601Z,98964.41
2023-04-02T04:39:18.163Z,98962.13
2023-04-02T04:41:48.894Z,98974.63
2023-04-02T04:44:24.660Z,98972.34
2023-04-02T04:47:07.495Z,98993.59
2023-04-02T04:50:08.869Z,98980.19
2023-04-02T04:52:40.569Z,98974.66
2023-04-02T04:55:28.738Z,98984.50
2023-04-02T04:58:04.146Z,98978.34
2023-04-02T05:00:57.755Z,98988.06
2023-04-02T05:03:43.604Z,98974.50
2023-04-02T05:06:33.959Z,98976.06
2023-04-02T05:09:15.775Z,98975.09
2023-04-02T05:11:53.064Z,98975.41
2023-04-02T05:14:32.109Z,98990.66
2023-04-02T05:17:38.250Z,98986.88
2023-04-02T05:20:20.664Z,98983.91
2023-04-02T05:23:24.061Z,98993.38
2023-04-02T05:26:00.589Z,98986.78
2023-04-02T05:28:38.971Z,98989.69
2023-04-02T05:31:12.550Z,99001.19
2023-04-02T05:33:45.619Z,99007.16
2023-04-02T05:36:24.494Z,98997.31
2023-04-02T05:38:57.602Z,99001.00
2023-04-02T05:42:01.787Z,98995.50
2023-04-02T05:44:45.840Z,98999.72
2023-04-02T05:47:24.392Z,99002.13
2023-04-02T05:50:08.741Z,98999.91
2023-04-02T05:52:49.524Z,99006.88
2023-04-02T05:55:17.088Z,99004.22
2023-04-02T05:58:21.383Z,99007.09
2023-04-02T06:01:25.344Z,99015.50
2023-04-02T06:04:23.353Z,99005.88
2023-04-02T06:06:59.597Z,99015.69
2023-04-02T06:09:27.836Z,99013.75
2023-04-02T06:12:33.873Z,99010.72
2023-04-02T06:15:01.376Z,99028.19
2023-04-02T06:17:43.622Z,99010.63
2023-04-02T06:20:16.682Z,99002.56
2023-04-02T06:22:59.942Z,99015.59
2023-04-02T06:25:32.548Z,99002.59
2023-04-02T06:28:04.607Z,99017.84
2023-04-02T06:30:35.803Z,99012.06
2023-04-02T06:33:05.274Z,99005.72
2023-04-02T06:35:39.044Z,99002.34
2023-04-02T06:38:25.609Z,99005.47
2023-04-02T06:40:58.947Z,99007.75
2023-04-02T06:43:45.539Z,99005.63
2023-04-02T06:46:38.886Z,99011.78
2023-04-02T06:49:21.715Z,99003.84
2023-04-02T06:51:54.537Z,98999.50
2023-04-02T06:54:22.010Z,99012.56
2023-04-02T06:56:58.865Z,99019.66
2023-04-02T06:59:46.247Z,99009.63
2023-04-02T07:02:20.641Z,99009.16
2023-04-02T07:04:48.218Z,98999.34
2023-04-02T07:07:16.703Z,99008.28
2023-04-02T07:09:46.215Z,99006.84
2023-04-02T07:12:14.281Z,99021.41
2023-04-02T07:14:43.049Z,99012.66
2023-04-02T07:17:17.948Z,99022.72
2023-04-02T07:19:49.255Z,99017.38
2023-04-02T07:22:19.391Z,99023.25
2023-04-02T07:24:49.838Z,99033.25
2023-04-02T07:27:16.917Z,99021.59
2023-04-02T07:29:44.088Z,99036.13
2023-04-02T07:32:12.419Z,99043.28
2023-04-02T07:34:42.458Z,99038.41
2023-04-02T07:37:14.181Z,99037.31
2023-04-02T07:39:41.883Z,99029.84
2023-04-02T07:42:08.969Z,99033.31
2023-04-02T07:44:35.975Z,99027.97
2023-04-02T07:47:03.125Z,99027.03
2023-04-02T07:49:30.164Z,99041.34
2023-04-02T07:51:57.229Z,99046.56
2023-04-02T07:54:24.341Z,99033.03
2023-04-02T07:56:51.431Z,99037.53
2023-04-02T07:59:18.441Z,99040.97
2023-04-02T08:01:45.932Z,99052.78
2023-04-02T08:04:21.547Z,99042.69
2023-04-02T08:06:49.678Z,99050.75
2023-04-02T08:09:17.641Z,99046.75
2023-04-02T08:11:46.665Z,99047.59
2023-04-02T08:14:14.355Z,99050.28
2023-04-02T08:16:52.571Z,99058.09
2023-04-02T08:19:20.033Z,99056.63
2023-04-02T08:21:50.659Z,99057.25
2023-04-02T08:24:21.584Z,99055.25
2023-04-02T08:26:50.062Z,99054.47
2023-04-02T08:29:17.222Z,99054.63
2023-04-02T08:31:44.211Z,99067.16
2023-04-02T08:34:11.269Z,99057.09
2023-04-02T08:36:41.740Z,99060.50
2023-04-02T08:39:13.908Z,99081.41
2023-04-02T08:41:48.483Z,99069.19
2023-04-02T08:44:39.982Z,99069.63
2023-04-02T08:47:09.958Z,99063.72
2023-04-02T08:49:57.948Z,99062.09
2023-04-02T08:52:28.874Z,99059.13
2023-04-02T08:54:58.025Z,99057.47
2023-04-02T08:57:43.945Z,99059.75
2023-04-02T09:00:20.498Z,99059.84
2023-04-02T09:03:00.933Z,99048.13
2023-04-02T09:05:31.974Z,99070.06
2023-04-02T09:08:02.964Z,99052.75
2023-04-02T09:10:42.733Z,99053.53
2023-04-02T09:13:18.638Z,99067.91
2023-04-02T09:15:45.869Z,99060.38
2023-04-02T09:18:18.192Z,99060.38
2023-04-02T09:20:45.716Z,99062.81
2023-04-02T09:23:18.792Z,99073.47
2023-04-02T09:26:02.901Z,99055.72
2023-04-02T09:28:31.841Z,99055.78
2023-04-02T09:31:11.685Z,99053.47
2023-04-02T09:33:48.466Z,99071.22
2023-04-02T09:36:36.013Z,99067.53
2023-04-02T09:39:17.777Z,99074.66
2023-04-02T09:41:50.265Z,99079.25
2023-04-02T09:44:32.005Z,99077.88
2023-04-02T09:47:05.493Z,99080.69
2023-04-02T09:49:39.990Z,99070.53
2023-04-02T09:52:30.982Z,99080.84
2023-04-02T09:55:16.419Z,99077.41
2023-04-02T09:57:46.336Z,99067.03
2023-04-02T10:00:32.121Z,99067.63
2023-04-02T10:03:19.713Z,99072.81
2023-04-02T10:05:47.664Z,99067.91
2023-04-02T10:08:28.235Z,99063.53
2023-04-02T10:11:02.017Z,99066.28
2023-04-02T10:13:31.326Z,99072.56
2023-04-02T10:16:22.684Z,99072.41
2023-04-02T10:19:19.035Z,99077.75
2023-04-02T10:21:49.268Z,99079.91
2023-04-02T10:24:17.619Z,99082.34
2023-04-02T10:26:56.595Z,99087.03
2023-04-02T10:30:09.599Z,99077.59
2023-04-02T10:32:57.925Z,99062.81
2023-04-02T10:35:38.825Z,99068.09
2023-04-02T10:38:24.452Z,99076.00
2023-04-02T10:40:56.459Z,99066.56
2023-04-02T10:43:47.544Z,99063.50
2023-04-02T10:46:25.485Z,99072.00
2023-04-02T10:49:18.288Z,99066.31
2023-04-02T10:51:47.773Z,99069.47
2023-04-02T10:54:42.668Z,99053.31
2023-04-02T10:57:35.017Z,99061.50
2023-04-02T11:00:09.633Z,99061.47
2023-04-02T11:02:36.717Z,99058.97
2023-04-02T11:05:14.050Z,99059.94
2023-04-02T11:07:52.639Z,99070.09
2023-04-02T11:10:21.238Z,99064.06
2023-04-02T11:12:59.268Z,99065.81
2023-04-02T11:15:27.443Z,99060.94
2023-04-02T11:17:54.896Z,99050.84
2023-04-02T11:20:44.163Z,99047.16
2023-04-02T11:23:13.698Z,99042.69
2023-04-02T11:25:42.592Z,99052.25
2023-04-02T11:28:29.428Z,99055.19
2023-04-02T11:30:57.866Z,99056.00
2023-04-02T11:33:38.113Z,99054.78
2023-04-02T11:36:43.957Z,99056.09
2023-04-02T11:39:17.419Z,99057.59
2023-04-02T11:42:06.842Z,99066.84
2023-04-02T11:44:34.937Z,99061.88
2023-04-02T11:47:24.634Z,99061.25
2023-04-02T11:49:54.901Z,99048.91
2023-04-02T11:52:28.917Z,99060.13
2023-04-02T11:54:58.880Z,99059.31
2023-04-02T11:57:51.879Z,99061.16
2023-04-02T12:00:26.530Z,99058.28
2023-04-02T12:03:00.157Z,99062.97
2023-04-02T12:05:43.291Z,99058.09
2023-04-02T12:08:15.238Z,99065.50
2023-04-02T12:11:02.493Z,99060.75
2023-04-02T12:13:41.768Z,99066.13
2023-04-02T12:16:11.230Z,99063.63
2023-04-02T12:18:47.254Z,99056.22
2023-04-02T12:21:26.904Z,99060.38
2023-04-02T12:23:57.948Z,99063.63
2023-04-02T12:26:27.998Z,99062.81
2023-04-02T12:28:56.394Z,99058.34
2023-04-02T12:31:25.329Z,99061.47
2023-04-02T12:33:53.235Z,99057.56
2023-04-02T12:36:23.739Z,99056.75
2023-04-02T12:38:52.466Z,99057.97
2023-04-02T12:41:24.455Z,99063.16
2023-04-02T12:44:01.851Z,99060.72
2023-04-02T12:46:30.958Z,99066.50
2023-04-02T12:49:08.542Z,99074.09
2023-04-02T12:51:36.650Z,99063.94
2023-04-02T12:54:04.448Z,99066.00
2023-04-02T12:56:31.548Z,99062.28
2023-04-02T12:59:00.713Z,99065.59
2023-04-02T13:01:31.713Z,99069.97
2023-04-02T13:04:15.200Z,99067.28
2023-04-02T13:06:50.120Z,99068.28
2023-04-02T13:09:28.823Z,99090.94
2023-04-02T13:11:56.149Z,99063.31
2023-04-02T13:14:24.723Z,99080.63
2023-04-02T13:16:51.898Z,99081.84
2023-04-02T13:19:28.508Z,99071.59
2023-04-02T13:21:57.872Z,99069.50
2023-04-02T13:24:27.568Z,99071.78
2023-04-02T13:27:01.112Z,99075.13
2023-04-02T13:29:33.268Z,99069.19
2023-04-02T13:32:05.997Z,99083.31
2023-04-02T13:34:32.938Z,99077.38
2023-04-02T13:37:00.032Z,99068.28
2023-04-02T13:39:27.347Z,99074.53
2023-04-02T13:42:12.967Z,99072.25
2023-04-02T13:44:40.300Z,99070.00
2023-04-02T13:47:07.536Z,99077.63
2023-04-02T13:49:34.582Z,99071.84
2023-04-02T13:52:04.437Z,99075.16
2023-04-02T13:55:04.463Z,99074.53
2023-04-02T13:57:31.625Z,99071.25
2023-04-02T13:59:58.670Z,99071.25
2023-04-02T14:02:26.118Z,99070.41
2023-04-02T14:05:04.147Z,99070.44
2023-04-02T14:07:56.011Z,99077.03
2023-04-02T14:10:32.318Z,99070.41
2023-04-02T14:13:17.812Z,99076.19
2023-04-02T14:16:06.043Z,99078.03
2023-04-02T14:19:12.814Z,99076.59
2023-04-02T14:21:58.258Z,99081.34
2023-04-02T14:24:37.388Z,99072.03
2023-04-02T14:27:11.218Z,99083.19
2023-04-02T14:29:58.351Z,99077.41
2023-04-02T14:32:44.206Z,99077.00
2023-04-02T14:35:11.710Z,99075.75
2023-04-02T14:37:41.619Z,99079.91
2023-04-02T14:40:32.154Z,99079.50
2023-04-02T14:43:08.461Z,99077.41
2023-04-02T14:45:41.482Z,99070.63
2023-04-02T14:48:47.869Z,99084.03
2023-04-02T14:51:17.578Z,99082.16
2023-04-02T14:54:14.862Z,99070.41
2023-04-02T14:56:52.336Z,99071.59
2023-04-02T14:59:34.563Z,99070.78
2023-04-02T15:02:28.068Z,99071.13
2023-04-02T15:05:10.034Z,99070.31
2023-04-02T15:07:41.953Z,99070.94
2023-04-02T15:10:24.870Z,99064.97
2023-04-02T15:12:54.114Z,99069.72
2023-04-02T15:15:46.933Z,99070.94
2023-04-02T15:18:16.821Z,99071.75
2023-04-02T15:21:01.360Z,99065.38
2023-04-02T15:23:35.207Z,99074.84
2023-04-02T15:26:15.917Z,99069.09
2023-04-02T15:29:15.841Z,99074.03
2023-04-02T15:31:52.032Z,99063.31
2023-04-02T15:34:42.365Z,99069.06
2023-04-02T15:37:31.016Z,99064.94
2023-04-02T15:40:24.116Z,99075.84
2023-04-02T15:43:05.205Z,99069.88
2023-04-02T15:46:14.314Z,99078.31
2023-04-02T15:48:53.443Z,99080.97
2023-04-02T15:51:45.082Z,99070.84
2023-04-02T15:54:33.390Z,99074.56
2023-04-02T15:57:22.369Z,99080.75
2023-04-02T15:59:58.022Z,99090.22
2023-04-02T16:02:55.664Z,99077.47
2023-04-02T16:05:34.786Z,99086.34
2023-04-02T16:08:17.064Z,99096.22
2023-04-02T16:10:45.780Z,99099.50
2023-04-02T16:13:36.590Z,99087.16
2023-04-02T16:16:08.701Z,99094.97
2023-04-02T16:18:44.854Z,99108.16
2023-04-02T16:21:20.857Z,99105.88
2023-04-02T16:23:48.581Z,99108.16
2023-04-02T16:26:43.429Z,99108.56
2023-04-02T16:29:55.302Z,99115.16
2023-04-02T16:32:41.079Z,99119.03
2023-04-02T16:35:41.664Z,99116.31
2023-04-02T16:38:37.870Z,99122.28
2023-04-02T16:41:35.699Z,99125.84
2023-04-02T16:44:35.970Z,99128.69
2023-04-02T16:47:24.723Z,99129.13
2023-04-02T16:49:54.824Z,99132.19
2023-04-02T16:52:34.108Z,99128.28
2023-04-02T16:55:34.064Z,99130.78
2023-04-02T16:58:22.420Z,99134.94
2023-04-02T17:01:18.556Z,99138.63
2023-04-02T17:04:02.220Z,99134.94
2023-04-02T17:06:39.820Z,99137.03
2023-04-02T17:09:24.061Z,99139.91
2023-04-02T17:12:04.621Z,99138.44
2023-04-02T17:14:39.178Z,99131.25
2023-04-02T17:17:08.942Z,99136.59
2023-04-02T17:19:36.426Z,99145.06
2023-04-02T17:22:05.739Z,99144.06
2023-04-02T17:24:44.596Z,99140.31
2023-04-02T17:27:35.638Z,99138.63
2023-04-02T17:30:13.349Z,99146.06
2023-04-02T17:32:40.570Z,99153.00
2023-04-02T17:35:40.415Z,99151.34
2023-04-02T17:38:13.366Z,99152.13
2023-04-02T17:41:08.173Z,99154.19
2023-04-02T17:43:53.859Z,99152.53
2023-04-02T17:46:37.800Z,99160.34
2023-04-02T17:49:34.173Z,99157.25
2023-04-02T17:52:05.827Z,99156.00
2023-04-02T17:54:54.700Z,99164.66
2023-04-02T17:57:30.784Z,99154.94
2023-04-02T18:00:08.789Z,99162.56
2023-04-02T18:03:18.751Z,99165.63
2023-04-02T18:05:54.558Z,99161.91
2023-04-02T18:08:49.158Z,99161.91
2023-04-02T18:11:47.067Z,99162.78
2023-04-02T18:14:32.929Z,99170.41
2023-04-02T18:16:59.925Z,99175.38
2023-04-02T18:19:44.778Z,99171.44
2023-04-02T18:22:23.191Z,99176.00
2023-04-02T18:25:27.784Z,99174.34
2023-04-02T18:28:05.847Z,99173.50
2023-04-02T18:30:32.962Z,99172.25
2023-04-02T18:33:28.642Z,99173.34
2023-04-02T18:36:26.495Z,99171.72
2023-04-02T18:39:11.031Z,99176.88
2023-04-02T18:41:47.792Z,99173.16
2023-04-02T18:44:30.334Z,99178.97
2023-04-02T18:47:40.707Z,99182.25
2023-04-02T18:50:19.935Z,99174.44
2023-04-02T18:52:48.738Z,99177.28
2023-04-02T18:55:20.562Z,99173.41
2023-04-02T18:57:52.755Z,99182.44
2023-04-02T19:00:26.359Z,99183.47
2023-04-02T19:03:03.078Z,99190.84
2023-04-02T19:05:36.409Z,99186.16
2023-04-02T19:08:29.087Z,99188.25
2023-04-02T19:11:04.390Z,99187.41
2023-04-02T19:13:31.805Z,99185.53
2023-04-02T19:16:05.957Z,99190.09
2023-04-02T19:18:41.634Z,99193.56
2023-04-02T19:21:26.888Z,99191.09
2023-04-02T19:24:20.124Z,99194.28
2023-04-02T19:26:57.277Z,99187.25
2023-04-02T19:29:33.130Z,99183.56
2023-04-02T19:32:25.515Z,99193.06
2023-04-02T19:35:02.887Z,99192.19
2023-04-02T19:37:33.094Z,99193.63
2023-04-02T19:40:08.667Z,99190.56
2023-04-02T19:42:45.032Z,99197.97
2023-04-02T19:45:29.022Z,99193.47
2023-04-02T19:47:58.866Z,99198.19
2023-04-02T19:50:26.096Z,99200.47
2023-04-02T19:52:53.076Z,99207.50
2023-04-02T19:55:20.433Z,99200.50
2023-04-02T19:57:47.604Z,99204.19
2023-04-02T20:00:15.951Z,99202.91
2023-04-02T20:02:43.024Z,99204.09
2023-04-02T20:05:10.213Z,99210.72
2023-04-02T20:07:37.341Z,99204.84
2023-04-02T20:10:04.689Z,99203.59
2023-04-02T20:12:31.678Z,99208.53
2023-04-02T20:14:58.662Z,99206.03
2023-04-02T20:17:25.783Z,99205.22
2023-04-02T20:19:52.886Z,99210.56
2023-04-02T20:22:19.929Z,99208.53
2023-04-02T20:24:47.102Z,99206.41
2023-04-02T20:27:16.027Z,99210.31
2023-04-02T20:29:43.136Z,99210.72
2023-04-02T20:32:11.075Z,99217.09
2023-04-02T20:34:38.071Z,99210.28
2023-04-02T20:37:05.239Z,99214.03
2023-04-02T20:39:32.311Z,99210.72
2023-04-02T20:42:02.985Z,99205.38
2023-04-02T20:44:30.072Z,99221.47
2023-04-02T20:46:57.613Z,99214.66
2023-04-02T20:49:25.739Z,99215.84
2023-04-02T20:51:52.889Z,99216.91
2023-04-02T20:54:19.921Z,99214.63
2023-04-02T20:56:47.483Z,99211.72
2023-04-02T20:59:14.578Z,99213.94
2023-04-02T21:01:41.741Z,99215.78
2023-04-02T21:04:08.995Z,99217.03
2023-04-02T21:06:38.626Z,99211.31
2023-04-02T21:09:09.163Z,99210.03
2023-04-02T21:11:36.973Z,99199.78
2023-04-02T21:14:04.563Z,99216.47
2023-04-02T21:16:32.288Z,99202.44
2023-04-02T21:19:07.771Z,99204.34
2023-04-02T21:21:36.361Z,99195.25
2023-04-02T21:24:05.767Z,99212.38
2023-04-02T21:26:35.396Z,99209.06
2023-04-02T21:29:03.001Z,99215.44
2023-04-02T21:31:34.023Z,99208.06
2023-04-02T21:34:01.367Z,99210.09
2023-04-02T21:36:31.756Z,99222.81
2023-04-02T21:39:08.090Z,99228.56
2023-04-02T21:41:37.614Z,99231.69
2023-04-02T21:44:06.974Z,99231.25
2023-04-02T21:46:37.176Z,99227.56
2023-04-02T21:49:05.752Z,99222.81
2023-04-02T21:51:33.851Z,99235.22
2023-04-02T21:54:01.737Z,99231.72
2023-04-02T21:56:40.594Z,99232.16
2023-04-02T21:59:09.736Z,99239.13
2023-04-02T22:01:40.132Z,99231.94
2023-04-02T22:04:08.859Z,99235.88
2023-04-02T22:06:39.255Z,99224.94
2023-04-02T22:09:12.283Z,99230.69
2023-04-02T22:11:45.928Z,99228.56
2023-04-02T22:14:13.366Z,99232.72
2023-04-02T22:16:41.234Z,99233.91
2023-04-02T22:19:10.812Z,99230.63
2023-04-02T22:21:39.209Z,99228.97
2023-04-02T22:24:09.381Z,99235.97
2023-04-02T22:26:37.031Z,99232.66
2023-04-02T22:29:05.181Z,99231.19
2023-04-02T22:31:35.124Z,99227.09
2023-04-02T22:34:04.709Z,99229.34
2023-04-02T22:36:32.320Z,99223.00
2023-04-02T22:39:01.303Z,99230.56
2023-04-02T22:41:29.778Z,99231.41
2023-04-02T22:43:57.755Z,99226.44
2023-04-02T22:46:26.812Z,99227.44
2023-04-02T22:48:54.871Z,99221.47
2023-04-02T22:51:23.301Z,99225.75
2023-04-02T22:53:50.670Z,99234.97
2023-04-02T22:56:21.743Z,99230.41
2023-04-02T22:58:49.362Z,99225.44
2023-04-02T23:01:25.936Z,99235.09
2023-04-02T23:03:54.740Z,99229.53
2023-04-02T23:06:22.264Z,99223.53
2023-04-02T23:08:49.352Z,99227.22
2023-04-02T23:11:25.029Z,99239.56
2023-04-02T23:13:54.903Z,99229.53
2023-04-02T23:16:23.180Z,99233.97
2023-04-02T23:18:51.001Z,99234.41
2023-04-02T23:21:19.140Z,99235.69
2023-04-02T23:23:47.194Z,99237.41
2023-04-02T23:26:24.543Z,99233.06
2023-04-02T23:28:51.782Z,99238.22
2023-04-02T23:31:21.631Z,99239.50
2023-04-02T23:33:49.611Z,99237.00
2023-04-02T23:36:25.340Z,99233.78
2023-04-02T23:38:57.049Z,99233.56
2023-04-02T23:41:27.017Z,99229.69
2023-04-02T23:43:56.018Z,99233.78
2023-04-02T23:46:23.667Z,99235.63
2023-04-02T23:48:52.174Z,99238.22
2023-04-02T23:51:19.469Z,99236.78
2023-04-02T23:53:47.942Z,99234.88
2023-04-02T23:56:15.007Z,99235.63
2023-04-02T23:58:42.032Z,99236.69
